sensor_id;sensor_type;location;lat;lon;timestamp;P1;durP1;ratioP1;P2;durP2;ratioP2
1258;SDS011;619;51.472;6.628;2023-01-25T00:02:17;27.83;;;24.33;;
1258;SDS011;619;51.472;6.628;2023-01-25T00:04:43;34.17;;;26.33;;
1258;SDS011;619;51.472;6.628;2023-01-25T00:07:09;25.23;;;22.23;;
1258;SDS011;619;51.472;6.628;2023-01-25T00:09:35;26.90;;;23.43;;
1258;SDS011;619;51.472;6.628;2023-01-25T00:12:01;26.83;;;24.03;;
1258;SDS011;619;51.472;6.628;2023-01-25T00:14:27;25.37;;;22.77;;
1258;SDS011;619;51.472;6.628;2023-01-25T00:16:53;28.37;;;23.43;;
1258;SDS011;619;51.472;6.628;2023-01-25T00:19:21;30.33;;;25.20;;
1258;SDS011;619;51.472;6.628;2023-01-25T00:21:48;30.33;;;27.03;;
1258;SDS011;619;51.472;6.628;2023-01-25T00:24:14;30.53;;;26.77;;
1258;SDS011;619;51.472;6.628;2023-01-25T00:26:42;37.40;;;29.10;;
1258;SDS011;619;51.472;6.628;2023-01-25T00:29:10;34.23;;;28.40;;
1258;SDS011;619;51.472;6.628;2023-01-25T00:31:40;30.83;;;26.63;;
1258;SDS011;619;51.472;6.628;2023-01-25T00:39:16;28.43;;;24.80;;
1258;SDS011;619;51.472;6.628;2023-01-25T00:41:42;31.13;;;25.93;;
1258;SDS011;619;51.472;6.628;2023-01-25T00:44:08;27.30;;;24.30;;
1258;SDS011;619;51.472;6.628;2023-01-25T00:46:34;29.83;;;25.50;;
1258;SDS011;619;51.472;6.628;2023-01-25T00:49:01;29.63;;;25.63;;
1258;SDS011;619;51.472;6.628;2023-01-25T00:51:27;31.37;;;26.00;;
1258;SDS011;619;51.472;6.628;2023-01-25T00:53:53;34.43;;;27.50;;
1258;SDS011;619;51.472;6.628;2023-01-25T00:56:19;30.93;;;27.47;;
1258;SDS011;619;51.472;6.628;2023-01-25T00:58:45;31.33;;;26.83;;
1258;SDS011;619;51.472;6.628;2023-01-25T01:01:11;32.13;;;28.60;;
1258;SDS011;619;51.472;6.628;2023-01-25T01:03:37;29.57;;;26.33;;
1258;SDS011;619;51.472;6.628;2023-01-25T01:08:31;28.60;;;25.40;;
1258;SDS011;619;51.472;6.628;2023-01-25T01:11:01;29.43;;;25.93;;
1258;SDS011;619;51.472;6.628;2023-01-25T01:13:27;29.23;;;26.13;;
1258;SDS011;619;51.472;6.628;2023-01-25T01:15:53;28.60;;;25.50;;
1258;SDS011;619;51.472;6.628;2023-01-25T01:18:22;28.47;;;25.03;;
1258;SDS011;619;51.472;6.628;2023-01-25T01:20:49;27.47;;;24.57;;
1258;SDS011;619;51.472;6.628;2023-01-25T01:23:18;23.83;;;21.23;;
1258;SDS011;619;51.472;6.628;2023-01-25T01:25:44;26.37;;;23.17;;
1258;SDS011;619;51.472;6.628;2023-01-25T01:28:12;26.47;;;23.60;;
1258;SDS011;619;51.472;6.628;2023-01-25T01:30:38;26.57;;;23.60;;
1258;SDS011;619;51.472;6.628;2023-01-25T01:33:05;28.47;;;25.50;;
1258;SDS011;619;51.472;6.628;2023-01-25T01:35:31;29.23;;;24.57;;
1258;SDS011;619;51.472;6.628;2023-01-25T01:37:57;27.37;;;24.37;;
1258;SDS011;619;51.472;6.628;2023-01-25T01:40:23;26.73;;;23.80;;
1258;SDS011;619;51.472;6.628;2023-01-25T01:43:02;28.53;;;23.77;;
1258;SDS011;619;51.472;6.628;2023-01-25T01:48:30;31.33;;;26.60;;
1258;SDS011;619;51.472;6.628;2023-01-25T01:50:59;29.87;;;26.60;;
1258;SDS011;619;51.472;6.628;2023-01-25T01:53:26;31.10;;;26.70;;
1258;SDS011;619;51.472;6.628;2023-01-25T01:55:54;27.50;;;23.03;;
1258;SDS011;619;51.472;6.628;2023-01-25T01:58:21;25.60;;;22.67;;
1258;SDS011;619;51.472;6.628;2023-01-25T02:00:47;27.37;;;23.97;;
1258;SDS011;619;51.472;6.628;2023-01-25T02:03:14;25.73;;;22.70;;
1258;SDS011;619;51.472;6.628;2023-01-25T02:05:59;24.30;;;21.70;;
1258;SDS011;619;51.472;6.628;2023-01-25T02:08:26;25.43;;;22.67;;
1258;SDS011;619;51.472;6.628;2023-01-25T02:10:53;27.53;;;22.10;;
1258;SDS011;619;51.472;6.628;2023-01-25T02:13:19;27.03;;;23.50;;
1258;SDS011;619;51.472;6.628;2023-01-25T02:15:46;24.63;;;21.97;;
1258;SDS011;619;51.472;6.628;2023-01-25T02:18:14;25.53;;;22.77;;
1258;SDS011;619;51.472;6.628;2023-01-25T02:25:41;25.63;;;22.93;;
1258;SDS011;619;51.472;6.628;2023-01-25T02:28:12;25.73;;;22.00;;
1258;SDS011;619;51.472;6.628;2023-01-25T02:30:40;25.87;;;22.80;;
1258;SDS011;619;51.472;6.628;2023-01-25T02:33:06;25.47;;;22.43;;
1258;SDS011;619;51.472;6.628;2023-01-25T02:35:46;26.47;;;22.37;;
1258;SDS011;619;51.472;6.628;2023-01-25T02:38:14;27.00;;;22.03;;
1258;SDS011;619;51.472;6.628;2023-01-25T02:40:48;25.10;;;21.63;;
1258;SDS011;619;51.472;6.628;2023-01-25T02:43:17;25.33;;;22.27;;
1258;SDS011;619;51.472;6.628;2023-01-25T02:45:47;29.13;;;23.07;;
1258;SDS011;619;51.472;6.628;2023-01-25T02:48:16;23.90;;;21.37;;
1258;SDS011;619;51.472;6.628;2023-01-25T02:50:42;26.57;;;21.47;;
1258;SDS011;619;51.472;6.628;2023-01-25T02:53:09;27.50;;;22.40;;
1258;SDS011;619;51.472;6.628;2023-01-25T02:55:35;26.30;;;22.53;;
1258;SDS011;619;51.472;6.628;2023-01-25T02:58:01;24.63;;;20.70;;
1258;SDS011;619;51.472;6.628;2023-01-25T03:00:27;25.63;;;22.93;;
1258;SDS011;619;51.472;6.628;2023-01-25T03:02:53;25.37;;;22.63;;
1258;SDS011;619;51.472;6.628;2023-01-25T03:05:19;28.57;;;23.37;;
1258;SDS011;619;51.472;6.628;2023-01-25T03:07:47;26.20;;;23.00;;
1258;SDS011;619;51.472;6.628;2023-01-25T03:10:13;26.60;;;22.60;;
1258;SDS011;619;51.472;6.628;2023-01-25T03:12:42;26.77;;;22.27;;
1258;SDS011;619;51.472;6.628;2023-01-25T03:15:10;28.30;;;23.60;;
1258;SDS011;619;51.472;6.628;2023-01-25T03:17:41;29.57;;;23.70;;
1258;SDS011;619;51.472;6.628;2023-01-25T03:20:09;25.77;;;22.60;;
1258;SDS011;619;51.472;6.628;2023-01-25T03:22:38;25.00;;;22.37;;
1258;SDS011;619;51.472;6.628;2023-01-25T03:25:04;30.77;;;23.63;;
1258;SDS011;619;51.472;6.628;2023-01-25T03:27:33;31.20;;;23.87;;
1258;SDS011;619;51.472;6.628;2023-01-25T03:29:59;30.53;;;24.17;;
1258;SDS011;619;51.472;6.628;2023-01-25T03:32:25;30.17;;;23.80;;
1258;SDS011;619;51.472;6.628;2023-01-25T03:34:51;28.43;;;23.80;;
1258;SDS011;619;51.472;6.628;2023-01-25T03:37:17;32.40;;;23.83;;
1258;SDS011;619;51.472;6.628;2023-01-25T03:39:46;27.03;;;21.50;;
1258;SDS011;619;51.472;6.628;2023-01-25T03:42:12;30.07;;;23.97;;
1258;SDS011;619;51.472;6.628;2023-01-25T03:44:38;30.30;;;23.03;;
1258;SDS011;619;51.472;6.628;2023-01-25T03:47:04;29.53;;;24.37;;
1258;SDS011;619;51.472;6.628;2023-01-25T03:49:32;29.13;;;23.30;;
1258;SDS011;619;51.472;6.628;2023-01-25T03:52:00;29.07;;;23.73;;
1258;SDS011;619;51.472;6.628;2023-01-25T03:54:26;31.97;;;25.57;;
1258;SDS011;619;51.472;6.628;2023-01-25T03:56:52;31.70;;;26.10;;
1258;SDS011;619;51.472;6.628;2023-01-25T03:59:18;34.73;;;26.07;;
1258;SDS011;619;51.472;6.628;2023-01-25T04:01:44;32.90;;;25.90;;
1258;SDS011;619;51.472;6.628;2023-01-25T04:04:14;34.13;;;25.47;;
1258;SDS011;619;51.472;6.628;2023-01-25T04:06:40;34.13;;;25.33;;
1258;SDS011;619;51.472;6.628;2023-01-25T04:09:09;31.30;;;25.07;;
1258;SDS011;619;51.472;6.628;2023-01-25T04:11:37;33.20;;;25.60;;
1258;SDS011;619;51.472;6.628;2023-01-25T04:14:03;33.27;;;26.00;;
1258;SDS011;619;51.472;6.628;2023-01-25T04:16:29;34.93;;;27.60;;
1258;SDS011;619;51.472;6.628;2023-01-25T04:18:55;35.73;;;28.03;;
1258;SDS011;619;51.472;6.628;2023-01-25T04:21:21;35.73;;;27.80;;
1258;SDS011;619;51.472;6.628;2023-01-25T04:23:47;38.40;;;27.70;;
1258;SDS011;619;51.472;6.628;2023-01-25T04:26:13;35.33;;;28.30;;
1258;SDS011;619;51.472;6.628;2023-01-25T04:28:39;36.17;;;28.90;;
1258;SDS011;619;51.472;6.628;2023-01-25T04:31:05;40.17;;;30.30;;
1258;SDS011;619;51.472;6.628;2023-01-25T04:33:31;37.83;;;28.80;;
1258;SDS011;619;51.472;6.628;2023-01-25T04:35:58;39.20;;;31.17;;
1258;SDS011;619;51.472;6.628;2023-01-25T04:38:24;41.63;;;31.40;;
1258;SDS011;619;51.472;6.628;2023-01-25T04:40:50;46.37;;;32.03;;
1258;SDS011;619;51.472;6.628;2023-01-25T04:43:19;41.90;;;31.40;;
1258;SDS011;619;51.472;6.628;2023-01-25T04:45:45;41.90;;;31.83;;
1258;SDS011;619;51.472;6.628;2023-01-25T04:48:11;46.70;;;33.27;;
1258;SDS011;619;51.472;6.628;2023-01-25T04:50:38;44.60;;;32.57;;
1258;SDS011;619;51.472;6.628;2023-01-25T04:53:05;41.63;;;30.73;;
1258;SDS011;619;51.472;6.628;2023-01-25T04:55:36;43.80;;;30.60;;
1258;SDS011;619;51.472;6.628;2023-01-25T04:58:04;43.43;;;29.90;;
1258;SDS011;619;51.472;6.628;2023-01-25T05:00:30;46.83;;;32.07;;
1258;SDS011;619;51.472;6.628;2023-01-25T05:02:56;47.33;;;33.60;;
1258;SDS011;619;51.472;6.628;2023-01-25T05:05:22;49.17;;;32.50;;
1258;SDS011;619;51.472;6.628;2023-01-25T05:07:50;51.93;;;35.90;;
1258;SDS011;619;51.472;6.628;2023-01-25T05:10:19;44.90;;;32.80;;
1258;SDS011;619;51.472;6.628;2023-01-25T05:12:45;44.53;;;33.33;;
1258;SDS011;619;51.472;6.628;2023-01-25T05:15:11;44.17;;;31.67;;
1258;SDS011;619;51.472;6.628;2023-01-25T05:17:37;43.57;;;30.83;;
1258;SDS011;619;51.472;6.628;2023-01-25T05:20:06;38.50;;;30.60;;
1258;SDS011;619;51.472;6.628;2023-01-25T05:22:32;37.23;;;28.40;;
1258;SDS011;619;51.472;6.628;2023-01-25T05:25:00;43.43;;;30.97;;
1258;SDS011;619;51.472;6.628;2023-01-25T05:27:27;43.60;;;31.00;;
1258;SDS011;619;51.472;6.628;2023-01-25T05:29:54;41.27;;;31.87;;
1258;SDS011;619;51.472;6.628;2023-01-25T05:32:21;39.67;;;28.57;;
1258;SDS011;619;51.472;6.628;2023-01-25T05:34:49;47.27;;;33.47;;
1258;SDS011;619;51.472;6.628;2023-01-25T05:37:18;44.20;;;31.90;;
1258;SDS011;619;51.472;6.628;2023-01-25T05:39:44;45.67;;;31.20;;
1258;SDS011;619;51.472;6.628;2023-01-25T05:42:11;41.83;;;32.47;;
1258;SDS011;619;51.472;6.628;2023-01-25T05:44:38;42.30;;;30.80;;
1258;SDS011;619;51.472;6.628;2023-01-25T05:47:04;44.07;;;30.30;;
1258;SDS011;619;51.472;6.628;2023-01-25T05:49:30;43.83;;;32.00;;
1258;SDS011;619;51.472;6.628;2023-01-25T05:51:59;40.77;;;29.73;;
1258;SDS011;619;51.472;6.628;2023-01-25T05:54:25;41.13;;;30.87;;
1258;SDS011;619;51.472;6.628;2023-01-25T05:56:51;39.33;;;31.10;;
1258;SDS011;619;51.472;6.628;2023-01-25T05:59:17;41.00;;;29.50;;
1258;SDS011;619;51.472;6.628;2023-01-25T06:01:45;40.40;;;31.30;;
1258;SDS011;619;51.472;6.628;2023-01-25T06:04:14;40.43;;;30.83;;
1258;SDS011;619;51.472;6.628;2023-01-25T06:06:40;42.27;;;31.83;;
1258;SDS011;619;51.472;6.628;2023-01-25T06:09:06;38.30;;;28.53;;
1258;SDS011;619;51.472;6.628;2023-01-25T06:11:35;39.60;;;29.87;;
1258;SDS011;619;51.472;6.628;2023-01-25T06:14:00;38.97;;;31.13;;
1258;SDS011;619;51.472;6.628;2023-01-25T06:16:29;37.27;;;28.20;;
1258;SDS011;619;51.472;6.628;2023-01-25T06:18:55;37.20;;;28.53;;
1258;SDS011;619;51.472;6.628;2023-01-25T06:21:21;37.53;;;28.73;;
1258;SDS011;619;51.472;6.628;2023-01-25T06:23:47;41.97;;;31.57;;
1258;SDS011;619;51.472;6.628;2023-01-25T06:26:14;38.03;;;30.23;;
1258;SDS011;619;51.472;6.628;2023-01-25T06:28:40;39.70;;;29.83;;
1258;SDS011;619;51.472;6.628;2023-01-25T06:31:10;36.60;;;29.37;;
1258;SDS011;619;51.472;6.628;2023-01-25T06:33:39;41.40;;;30.23;;
1258;SDS011;619;51.472;6.628;2023-01-25T06:36:11;38.10;;;30.50;;
1258;SDS011;619;51.472;6.628;2023-01-25T06:38:38;41.13;;;29.67;;
1258;SDS011;619;51.472;6.628;2023-01-25T06:41:05;35.80;;;29.37;;
1258;SDS011;619;51.472;6.628;2023-01-25T06:43:32;37.10;;;28.70;;
1258;SDS011;619;51.472;6.628;2023-01-25T06:46:02;36.37;;;28.87;;
1258;SDS011;619;51.472;6.628;2023-01-25T06:48:30;37.63;;;28.53;;
1258;SDS011;619;51.472;6.628;2023-01-25T06:51:04;38.03;;;29.20;;
1258;SDS011;619;51.472;6.628;2023-01-25T06:53:31;35.17;;;27.77;;
1258;SDS011;619;51.472;6.628;2023-01-25T06:58:23;41.80;;;27.57;;
1258;SDS011;619;51.472;6.628;2023-01-25T07:00:49;37.13;;;28.73;;
1258;SDS011;619;51.472;6.628;2023-01-25T07:03:17;33.13;;;27.77;;
1258;SDS011;619;51.472;6.628;2023-01-25T07:05:46;33.53;;;26.77;;
1258;SDS011;619;51.472;6.628;2023-01-25T07:08:15;31.80;;;25.47;;
1258;SDS011;619;51.472;6.628;2023-01-25T07:10:42;34.70;;;27.70;;
1258;SDS011;619;51.472;6.628;2023-01-25T07:13:08;31.73;;;25.23;;
1258;SDS011;619;51.472;6.628;2023-01-25T07:15:34;34.87;;;25.10;;
1258;SDS011;619;51.472;6.628;2023-01-25T07:18:00;35.50;;;27.23;;
1258;SDS011;619;51.472;6.628;2023-01-25T07:20:26;31.37;;;24.57;;
1258;SDS011;619;51.472;6.628;2023-01-25T07:22:52;33.60;;;26.87;;
1258;SDS011;619;51.472;6.628;2023-01-25T07:25:18;34.90;;;27.40;;
1258;SDS011;619;51.472;6.628;2023-01-25T07:27:46;31.80;;;26.27;;
1258;SDS011;619;51.472;6.628;2023-01-25T07:30:12;35.13;;;26.00;;
1258;SDS011;619;51.472;6.628;2023-01-25T07:32:39;30.90;;;25.57;;
1258;SDS011;619;51.472;6.628;2023-01-25T07:35:09;33.30;;;27.20;;
1258;SDS011;619;51.472;6.628;2023-01-25T07:37:35;33.20;;;25.93;;
1258;SDS011;619;51.472;6.628;2023-01-25T07:40:01;32.03;;;25.87;;
1258;SDS011;619;51.472;6.628;2023-01-25T07:42:27;37.67;;;28.43;;
1258;SDS011;619;51.472;6.628;2023-01-25T07:44:53;37.30;;;26.30;;
1258;SDS011;619;51.472;6.628;2023-01-25T07:47:19;35.63;;;25.43;;
1258;SDS011;619;51.472;6.628;2023-01-25T07:49:45;30.40;;;26.43;;
1258;SDS011;619;51.472;6.628;2023-01-25T07:52:11;34.17;;;27.10;;
1258;SDS011;619;51.472;6.628;2023-01-25T07:54:37;35.90;;;27.77;;
1258;SDS011;619;51.472;6.628;2023-01-25T07:57:05;35.90;;;26.43;;
1258;SDS011;619;51.472;6.628;2023-01-25T07:59:34;36.07;;;28.20;;
1258;SDS011;619;51.472;6.628;2023-01-25T08:02:00;34.73;;;27.60;;
1258;SDS011;619;51.472;6.628;2023-01-25T08:04:30;32.30;;;25.00;;
1258;SDS011;619;51.472;6.628;2023-01-25T08:06:56;34.57;;;26.70;;
1258;SDS011;619;51.472;6.628;2023-01-25T08:09:24;34.83;;;27.60;;
1258;SDS011;619;51.472;6.628;2023-01-25T08:11:50;37.70;;;27.10;;
1258;SDS011;619;51.472;6.628;2023-01-25T08:14:19;32.30;;;26.23;;
1258;SDS011;619;51.472;6.628;2023-01-25T08:16:45;35.10;;;26.87;;
1258;SDS011;619;51.472;6.628;2023-01-25T08:19:11;37.23;;;27.87;;
1258;SDS011;619;51.472;6.628;2023-01-25T08:21:39;39.47;;;27.27;;
1258;SDS011;619;51.472;6.628;2023-01-25T08:24:06;38.27;;;28.47;;
1258;SDS011;619;51.472;6.628;2023-01-25T08:26:33;35.33;;;27.00;;
1258;SDS011;619;51.472;6.628;2023-01-25T08:28:59;34.93;;;26.40;;
1258;SDS011;619;51.472;6.628;2023-01-25T08:31:29;36.17;;;27.20;;
1258;SDS011;619;51.472;6.628;2023-01-25T08:33:55;33.30;;;26.20;;
1258;SDS011;619;51.472;6.628;2023-01-25T08:36:22;37.37;;;27.87;;
1258;SDS011;619;51.472;6.628;2023-01-25T08:38:54;33.63;;;25.53;;
1258;SDS011;619;51.472;6.628;2023-01-25T08:41:24;33.27;;;26.30;;
1258;SDS011;619;51.472;6.628;2023-01-25T08:43:50;37.80;;;29.50;;
1258;SDS011;619;51.472;6.628;2023-01-25T08:46:20;42.23;;;27.93;;
1258;SDS011;619;51.472;6.628;2023-01-25T08:48:46;38.47;;;27.50;;
1258;SDS011;619;51.472;6.628;2023-01-25T08:51:13;33.67;;;25.80;;
1258;SDS011;619;51.472;6.628;2023-01-25T08:53:42;37.10;;;27.23;;
1258;SDS011;619;51.472;6.628;2023-01-25T08:56:13;35.47;;;28.03;;
1258;SDS011;619;51.472;6.628;2023-01-25T08:58:42;36.30;;;27.07;;
1258;SDS011;619;51.472;6.628;2023-01-25T09:01:09;34.37;;;28.20;;
1258;SDS011;619;51.472;6.628;2023-01-25T09:03:41;36.47;;;27.60;;
1258;SDS011;619;51.472;6.628;2023-01-25T09:06:07;42.13;;;28.60;;
1258;SDS011;619;51.472;6.628;2023-01-25T09:08:35;32.10;;;26.43;;
1258;SDS011;619;51.472;6.628;2023-01-25T09:11:02;35.83;;;27.57;;
1258;SDS011;619;51.472;6.628;2023-01-25T09:13:31;34.70;;;26.40;;
1258;SDS011;619;51.472;6.628;2023-01-25T09:15:58;33.03;;;26.60;;
1258;SDS011;619;51.472;6.628;2023-01-25T09:18:25;34.00;;;26.13;;
1258;SDS011;619;51.472;6.628;2023-01-25T09:20:51;32.43;;;24.87;;
1258;SDS011;619;51.472;6.628;2023-01-25T09:23:19;33.27;;;26.47;;
1258;SDS011;619;51.472;6.628;2023-01-25T09:25:54;39.57;;;27.93;;
1258;SDS011;619;51.472;6.628;2023-01-25T09:28:21;32.03;;;26.47;;
1258;SDS011;619;51.472;6.628;2023-01-25T09:30:53;35.03;;;26.57;;
1258;SDS011;619;51.472;6.628;2023-01-25T09:33:28;34.03;;;25.80;;
1258;SDS011;619;51.472;6.628;2023-01-25T09:35:56;32.27;;;27.33;;
1258;SDS011;619;51.472;6.628;2023-01-25T09:38:23;31.97;;;25.97;;
1258;SDS011;619;51.472;6.628;2023-01-25T09:40:56;35.30;;;27.53;;
1258;SDS011;619;51.472;6.628;2023-01-25T09:45:56;34.50;;;27.87;;
1258;SDS011;619;51.472;6.628;2023-01-25T09:53:40;38.00;;;27.80;;
1258;SDS011;619;51.472;6.628;2023-01-25T09:56:28;38.57;;;28.00;;
1258;SDS011;619;51.472;6.628;2023-01-25T09:58:57;36.70;;;28.77;;
1258;SDS011;619;51.472;6.628;2023-01-25T10:06:47;37.33;;;30.17;;
1258;SDS011;619;51.472;6.628;2023-01-25T10:11:40;32.87;;;27.50;;
1258;SDS011;619;51.472;6.628;2023-01-25T10:14:11;40.60;;;29.70;;
1258;SDS011;619;51.472;6.628;2023-01-25T10:16:43;35.83;;;;;
1258;SDS011;619;51.472;6.628;2023-01-25T10:22:00;38.30;;;30.10;;
1258;SDS011;619;51.472;6.628;2023-01-25T10:27:01;35.80;;;26.50;;
1258;SDS011;619;51.472;6.628;2023-01-25T10:29:30;36.20;;;29.00;;
1258;SDS011;619;51.472;6.628;2023-01-25T10:34:38;32.60;;;27.20;;
1258;SDS011;619;51.472;6.628;2023-01-25T10:37:10;34.93;;;28.00;;
1258;SDS011;619;51.472;6.628;2023-01-25T10:39:38;35.97;;;27.70;;
1258;SDS011;619;51.472;6.628;2023-01-25T10:42:08;37.10;;;29.17;;
1258;SDS011;619;51.472;6.628;2023-01-25T10:44:34;35.43;;;27.80;;
1258;SDS011;619;51.472;6.628;2023-01-25T10:47:04;38.97;;;29.53;;
1258;SDS011;619;51.472;6.628;2023-01-25T10:52:17;36.33;;;27.87;;
1258;SDS011;619;51.472;6.628;2023-01-25T10:54:44;36.07;;;26.43;;
1258;SDS011;619;51.472;6.628;2023-01-25T10:57:14;42.67;;;27.77;;
1258;SDS011;619;51.472;6.628;2023-01-25T10:59:43;37.90;;;28.90;;
1258;SDS011;619;51.472;6.628;2023-01-25T11:04:55;36.20;;;27.40;;
1258;SDS011;619;51.472;6.628;2023-01-25T11:07:26;32.87;;;26.60;;
1258;SDS011;619;51.472;6.628;2023-01-25T11:09:54;36.07;;;27.40;;
1258;SDS011;619;51.472;6.628;2023-01-25T11:12:20;33.17;;;26.60;;
1258;SDS011;619;51.472;6.628;2023-01-25T11:14:47;37.83;;;29.00;;
1258;SDS011;619;51.472;6.628;2023-01-25T11:17:29;36.70;;;29.23;;
1258;SDS011;619;51.472;6.628;2023-01-25T11:22:35;35.77;;;28.10;;
1258;SDS011;619;51.472;6.628;2023-01-25T11:27:45;38.03;;;28.63;;
1258;SDS011;619;51.472;6.628;2023-01-25T11:30:13;34.37;;;27.70;;
1258;SDS011;619;51.472;6.628;2023-01-25T11:32:43;36.23;;;28.67;;
1258;SDS011;619;51.472;6.628;2023-01-25T11:35:13;37.23;;;28.40;;
1258;SDS011;619;51.472;6.628;2023-01-25T11:50:33;33.87;;;26.73;;
1258;SDS011;619;51.472;6.628;2023-01-25T12:06:06;36.30;;;29.27;;
1258;SDS011;619;51.472;6.628;2023-01-25T12:13:46;38.77;;;29.73;;
1258;SDS011;619;51.472;6.628;2023-01-25T12:19:06;40.10;;;29.80;;
1258;SDS011;619;51.472;6.628;2023-01-25T12:27:06;39.80;;;31.43;;
1258;SDS011;619;51.472;6.628;2023-01-25T12:29:43;45.07;;;33.53;;
1258;SDS011;619;51.472;6.628;2023-01-25T12:32:12;40.70;;;29.47;;
1258;SDS011;619;51.472;6.628;2023-01-25T12:34:42;42.90;;;31.00;;
1258;SDS011;619;51.472;6.628;2023-01-25T12:39:38;40.77;;;30.73;;
1258;SDS011;619;51.472;6.628;2023-01-25T12:42:11;44.93;;;33.80;;
1258;SDS011;619;51.472;6.628;2023-01-25T12:44:45;47.40;;;33.83;;
1258;SDS011;619;51.472;6.628;2023-01-25T12:47:22;42.33;;;31.23;;
1258;SDS011;619;51.472;6.628;2023-01-25T12:50:00;38.67;;;29.37;;
1258;SDS011;619;51.472;6.628;2023-01-25T12:52:33;41.27;;;32.20;;
1258;SDS011;619;51.472;6.628;2023-01-25T12:55:00;38.90;;;30.20;;
1258;SDS011;619;51.472;6.628;2023-01-25T12:57:35;42.73;;;31.67;;
1258;SDS011;619;51.472;6.628;2023-01-25T13:00:06;46.50;;;32.60;;
1258;SDS011;619;51.472;6.628;2023-01-25T13:02:52;43.60;;;32.00;;
1258;SDS011;619;51.472;6.628;2023-01-25T13:05:28;45.03;;;34.30;;
1258;SDS011;619;51.472;6.628;2023-01-25T13:10:35;44.47;;;33.50;;
1258;SDS011;619;51.472;6.628;2023-01-25T13:13:17;46.30;;;34.67;;
1258;SDS011;619;51.472;6.628;2023-01-25T13:15:44;41.00;;;32.57;;
1258;SDS011;619;51.472;6.628;2023-01-25T13:18:33;45.50;;;32.83;;
1258;SDS011;619;51.472;6.628;2023-01-25T13:21:00;45.20;;;32.30;;
1258;SDS011;619;51.472;6.628;2023-01-25T13:23:34;47.47;;;34.13;;
1258;SDS011;619;51.472;6.628;2023-01-25T13:28:49;44.80;;;34.30;;
1258;SDS011;619;51.472;6.628;2023-01-25T13:34:12;48.70;;;34.97;;
1258;SDS011;619;51.472;6.628;2023-01-25T13:39:39;57.10;;;35.73;;
1258;SDS011;619;51.472;6.628;2023-01-25T13:44:35;50.90;;;37.67;;
1258;SDS011;619;51.472;6.628;2023-01-25T13:47:06;47.23;;;35.67;;
1258;SDS011;619;51.472;6.628;2023-01-25T13:49:39;50.63;;;35.63;;
1258;SDS011;619;51.472;6.628;2023-01-25T13:52:10;48.83;;;36.67;;
1258;SDS011;619;51.472;6.628;2023-01-25T13:54:46;51.87;;;36.37;;
1258;SDS011;619;51.472;6.628;2023-01-25T13:57:13;52.70;;;35.90;;
1258;SDS011;619;51.472;6.628;2023-01-25T13:59:39;48.70;;;34.87;;
1258;SDS011;619;51.472;6.628;2023-01-25T14:04:43;50.40;;;34.10;;
1258;SDS011;619;51.472;6.628;2023-01-25T14:07:13;46.20;;;34.90;;
1258;SDS011;619;51.472;6.628;2023-01-25T14:09:41;50.50;;;35.03;;
1258;SDS011;619;51.472;6.628;2023-01-25T14:12:10;49.43;;;35.00;;
1258;SDS011;619;51.472;6.628;2023-01-25T14:14:36;46.27;;;33.97;;
1258;SDS011;619;51.472;6.628;2023-01-25T14:19:29;47.43;;;34.70;;
1258;SDS011;619;51.472;6.628;2023-01-25T14:24:40;54.23;;;35.83;;
1258;SDS011;619;51.472;6.628;2023-01-25T14:27:10;43.67;;;33.63;;
1258;SDS011;619;51.472;6.628;2023-01-25T14:29:37;45.60;;;34.50;;
1258;SDS011;619;51.472;6.628;2023-01-25T14:32:03;50.67;;;36.87;;
1258;SDS011;619;51.472;6.628;2023-01-25T14:34:32;48.33;;;34.03;;
1258;SDS011;619;51.472;6.628;2023-01-25T14:37:05;47.37;;;34.83;;
1258;SDS011;619;51.472;6.628;2023-01-25T14:39:34;51.10;;;36.57;;
1258;SDS011;619;51.472;6.628;2023-01-25T14:42:00;47.43;;;32.80;;
1258;SDS011;619;51.472;6.628;2023-01-25T14:44:29;47.63;;;34.87;;
1258;SDS011;619;51.472;6.628;2023-01-25T14:49:42;41.93;;;31.00;;
1258;SDS011;619;51.472;6.628;2023-01-25T14:52:11;43.47;;;31.83;;
1258;SDS011;619;51.472;6.628;2023-01-25T14:59:56;43.90;;;32.50;;
1258;SDS011;619;51.472;6.628;2023-01-25T15:04:52;46.50;;;32.30;;
1258;SDS011;619;51.472;6.628;2023-01-25T15:12:41;43.60;;;31.90;;
1258;SDS011;619;51.472;6.628;2023-01-25T15:15:17;43.03;;;32.87;;
1258;SDS011;619;51.472;6.628;2023-01-25T15:17:45;47.00;;;31.67;;
1258;SDS011;619;51.472;6.628;2023-01-25T15:23:25;41.00;;;29.37;;
1258;SDS011;619;51.472;6.628;2023-01-25T15:25:56;39.90;;;32.73;;
1258;SDS011;619;51.472;6.628;2023-01-25T15:28:23;40.03;;;30.10;;
1258;SDS011;619;51.472;6.628;2023-01-25T15:30:49;39.70;;;31.10;;
1258;SDS011;619;51.472;6.628;2023-01-25T15:33:17;41.37;;;30.17;;
1258;SDS011;619;51.472;6.628;2023-01-25T15:35:43;43.80;;;30.30;;
1258;SDS011;619;51.472;6.628;2023-01-25T15:38:12;52.30;;;33.80;;
1258;SDS011;619;51.472;6.628;2023-01-25T15:40:39;40.47;;;30.87;;
1258;SDS011;619;51.472;6.628;2023-01-25T15:43:07;43.80;;;30.67;;
1258;SDS011;619;51.472;6.628;2023-01-25T15:45:34;43.90;;;32.10;;
1258;SDS011;619;51.472;6.628;2023-01-25T15:48:02;41.30;;;33.17;;
1258;SDS011;619;51.472;6.628;2023-01-25T15:50:28;45.80;;;33.67;;
1258;SDS011;619;51.472;6.628;2023-01-25T15:52:54;48.13;;;36.70;;
1258;SDS011;619;51.472;6.628;2023-01-25T15:55:20;40.47;;;30.37;;
1258;SDS011;619;51.472;6.628;2023-01-25T15:57:48;43.10;;;30.77;;
1258;SDS011;619;51.472;6.628;2023-01-25T16:00:18;49.70;;;36.20;;
1258;SDS011;619;51.472;6.628;2023-01-25T16:03:05;49.40;;;33.43;;
1258;SDS011;619;51.472;6.628;2023-01-25T16:05:32;44.70;;;31.13;;
1258;SDS011;619;51.472;6.628;2023-01-25T16:07:58;52.07;;;34.00;;
1258;SDS011;619;51.472;6.628;2023-01-25T16:10:24;47.00;;;33.30;;
1258;SDS011;619;51.472;6.628;2023-01-25T16:12:52;45.73;;;33.03;;
1258;SDS011;619;51.472;6.628;2023-01-25T16:15:18;48.70;;;32.10;;
1258;SDS011;619;51.472;6.628;2023-01-25T16:17:44;43.17;;;30.70;;
1258;SDS011;619;51.472;6.628;2023-01-25T16:20:19;44.63;;;33.07;;
1258;SDS011;619;51.472;6.628;2023-01-25T16:22:46;42.60;;;33.50;;
1258;SDS011;619;51.472;6.628;2023-01-25T16:25:12;42.83;;;30.77;;
1258;SDS011;619;51.472;6.628;2023-01-25T16:27:41;48.13;;;33.40;;
1258;SDS011;619;51.472;6.628;2023-01-25T16:30:11;53.20;;;35.47;;
1258;SDS011;619;51.472;6.628;2023-01-25T16:32:41;50.73;;;34.47;;
1258;SDS011;619;51.472;6.628;2023-01-25T16:35:08;51.60;;;33.80;;
1258;SDS011;619;51.472;6.628;2023-01-25T16:37:35;46.67;;;31.93;;
1258;SDS011;619;51.472;6.628;2023-01-25T16:40:01;51.63;;;34.77;;
1258;SDS011;619;51.472;6.628;2023-01-25T16:42:27;51.33;;;32.57;;
1258;SDS011;619;51.472;6.628;2023-01-25T16:44:53;49.10;;;32.60;;
1258;SDS011;619;51.472;6.628;2023-01-25T16:47:19;49.03;;;33.97;;
1258;SDS011;619;51.472;6.628;2023-01-25T16:49:47;48.43;;;35.27;;
1258;SDS011;619;51.472;6.628;2023-01-25T16:52:13;52.03;;;34.13;;
1258;SDS011;619;51.472;6.628;2023-01-25T16:54:39;51.50;;;35.43;;
1258;SDS011;619;51.472;6.628;2023-01-25T16:57:06;52.40;;;35.10;;
1258;SDS011;619;51.472;6.628;2023-01-25T16:59:33;56.00;;;37.27;;
1258;SDS011;619;51.472;6.628;2023-01-25T17:01:59;52.30;;;36.53;;
1258;SDS011;619;51.472;6.628;2023-01-25T17:04:25;54.60;;;36.60;;
1258;SDS011;619;51.472;6.628;2023-01-25T17:06:53;59.60;;;37.43;;
1258;SDS011;619;51.472;6.628;2023-01-25T17:09:19;60.53;;;40.27;;
1258;SDS011;619;51.472;6.628;2023-01-25T17:11:48;56.20;;;36.83;;
1258;SDS011;619;51.472;6.628;2023-01-25T17:14:15;59.63;;;37.53;;
1258;SDS011;619;51.472;6.628;2023-01-25T17:16:42;60.93;;;38.70;;
1258;SDS011;619;51.472;6.628;2023-01-25T17:19:12;58.30;;;36.27;;
1258;SDS011;619;51.472;6.628;2023-01-25T17:21:38;59.03;;;37.90;;
1258;SDS011;619;51.472;6.628;2023-01-25T17:24:04;64.70;;;40.10;;